Time;durP1;ratioP1;P1;durP2;ratioP2;P2;SDS_P1;SDS_P2;PMS_P1;PMS_P2;Temp;Humidity;BMP_temperature;BMP_pressure;BME280_temperature;BME280_humidity;BME280_pressure;Samples;Min_cycle;Max_cycle;Signal;HPM_P1;HPM_P2
2022/07/08 00:02:01;;;;;;;4.80;1.67;;;;;;;18.12;65.79;99667.25;4931479;28;103332;-57
2022/07/08 00:04:29;;;;;;;2.80;1.50;;;;;;;17.99;66.37;99679.19;4919287;28;103931;-58
2022/07/08 00:06:57;;;;;;;5.05;1.60;;;;;;;17.91;66.24;99685.16;4901519;28;102879;-57
2022/07/08 00:09:26;;;;;;;3.22;1.50;;;;;;;17.79;66.40;99680.91;4919110;28;103891;-57
2022/07/08 00:11:54;;;;;;;3.80;1.55;;;;;;;18.18;65.41;99687.28;4924705;28;103389;-60
2022/07/08 00:14:23;;;;;;;4.53;1.90;;;;;;;18.49;64.12;99688.94;4920419;28;103200;-57
2022/07/08 00:16:52;;;;;;;3.70;1.48;;;;;;;18.37;64.29;99695.34;4900364;28;102973;-59
2022/07/08 00:19:20;;;;;;;4.30;1.52;;;;;;;18.38;63.58;99691.72;4918304;28;104412;-59
2022/07/08 00:21:50;;;;;;;4.22;1.63;;;;;;;18.26;63.15;99695.47;4917315;28;103336;-59
2022/07/08 00:24:19;;;;;;;5.60;1.77;;;;;;;18.04;62.67;99695.66;4916895;28;103253;-59
2022/07/08 00:26:46;;;;;;;4.50;1.75;;;;;;;18.10;61.30;99705.81;4919330;28;102912;-59
2022/07/08 00:29:14;;;;;;;5.00;2.17;;;;;;;17.59;60.83;99692.47;4898611;28;102871;-59
2022/07/08 00:31:42;;;;;;;5.00;2.10;;;;;;;17.74;60.54;99700.00;4916783;28;103233;-59
2022/07/08 00:34:12;;;;;;;5.40;2.10;;;;;;;18.05;59.41;99702.72;4903098;28;103402;-59
2022/07/08 00:36:40;;;;;;;4.68;2.40;;;;;;;17.65;60.52;99716.00;4920360;28;102782;-59
2022/07/08 00:39:08;;;;;;;4.40;2.20;;;;;;;17.48;61.20;99714.72;4916801;28;102739;-57
2022/07/08 00:41:36;;;;;;;2.43;1.40;;;;;;;18.34;58.96;99714.34;4898410;28;103373;-56
2022/07/08 00:44:05;;;;;;;5.38;2.30;;;;;;;17.98;59.12;99717.56;4916727;28;103206;-57
2022/07/08 00:46:33;;;;;;;5.53;2.30;;;;;;;18.09;59.38;99717.47;4921645;28;102877;-57
2022/07/08 00:49:12;;;;;;;6.67;2.57;;;;;;;18.16;58.75;99721.34;4919437;28;103125;-59
2022/07/08 00:51:51;;;;;;;2.15;1.40;;;;;;;18.53;57.99;99714.44;4912245;28;105869;-59
2022/07/08 00:54:21;;;;;;;3.78;2.17;;;;;;;18.56;57.87;99724.88;4898912;28;103425;-57
2022/07/08 00:56:49;;;;;;;3.45;1.92;;;;;;;18.59;57.90;99727.28;4916104;28;102793;-57
2022/07/08 00:59:18;;;;;;;5.13;2.60;;;;;;;18.17;58.89;99725.69;4917136;28;102979;-57
2022/07/08 01:01:46;;;;;;;5.07;2.20;;;;;;;18.14;59.76;99731.28;4894019;28;104246;-57
2022/07/08 01:04:14;;;;;;;3.95;2.05;;;;;;;18.39;58.78;99725.50;4917679;28;103450;-59
2022/07/08 01:06:42;;;;;;;3.97;2.20;;;;;;;18.40;58.57;99727.19;4897778;28;103648;-59
2022/07/08 01:09:14;;;;;;;2.78;1.83;;;;;;;18.36;58.97;99731.09;4914626;28;103700;-58
2022/07/08 01:11:46;;;;;;;6.67;2.73;;;;;;;18.25;59.11;99736.56;4907535;28;104526;-59
2022/07/08 01:14:16;;;;;;;3.53;1.85;;;;;;;18.28;58.88;99726.44;4913691;28;103897;-59
2022/07/08 01:16:44;;;;;;;5.43;2.55;;;;;;;18.08;60.01;99726.50;4914242;28;102845;-59
2022/07/08 01:19:12;;;;;;;4.40;2.40;;;;;;;18.09;59.67;99725.50;4900107;28;103775;-59
2022/07/08 01:21:42;;;;;;;4.28;2.08;;;;;;;18.13;59.31;99722.44;4914403;28;103262;-59
2022/07/08 01:24:09;;;;;;;3.80;2.10;;;;;;;18.21;59.14;99730.66;4915784;28;103547;-58
2022/07/08 01:26:38;;;;;;;5.20;2.17;;;;;;;18.06;59.49;99728.44;4901678;28;103365;-59
2022/07/08 01:29:06;;;;;;;4.50;2.30;;;;;;;18.01;59.56;99728.00;4918392;28;102873;-59
2022/07/08 01:31:34;;;;;;;4.07;2.27;;;;;;;17.75;60.00;99725.75;4913519;28;103498;-56
2022/07/08 01:34:01;;;;;;;5.03;2.50;;;;;;;17.87;60.05;99727.38;4902425;28;103170;-57
2022/07/08 01:36:29;;;;;;;5.68;2.15;;;;;;;18.08;59.14;99735.34;4921004;28;102719;-57
2022/07/08 01:38:59;;;;;;;3.15;1.70;;;;;;;18.14;58.84;99739.31;4914622;28;104846;-59
2022/07/08 01:41:27;;;;;;;3.90;1.93;;;;;;;18.14;58.56;99739.31;4922438;28;103031;-58
2022/07/08 01:43:57;;;;;;;4.35;2.20;;;;;;;17.99;58.78;99740.66;4921974;28;102969;-58
2022/07/08 01:46:25;;;;;;;3.30;1.70;;;;;;;17.93;58.81;99742.03;4920240;28;103932;-58
2022/07/08 01:48:53;;;;;;;3.13;1.60;;;;;;;17.98;58.86;99749.66;4905173;28;102789;-58
2022/07/08 01:51:21;;;;;;;4.03;2.10;;;;;;;17.94;58.54;99749.91;4920167;28;104157;-59
2022/07/08 01:53:49;;;;;;;5.80;2.20;;;;;;;17.59;59.90;99752.09;4921146;28;103296;-57
2022/07/08 01:56:18;;;;;;;4.27;1.90;;;;;;;17.58;59.77;99752.22;4918556;28;103008;-56
2022/07/08 01:58:46;;;;;;;4.10;1.70;;;;;;;17.68;59.41;99761.16;4921861;28;102614;-56
2022/07/08 02:01:14;;;;;;;4.07;2.00;;;;;;;17.62;59.44;99765.19;4918176;28;103457;-59
2022/07/08 02:03:42;;;;;;;4.25;1.73;;;;;;;17.66;59.14;99766.63;4926843;28;103175;-58
2022/07/08 02:06:10;;;;;;;5.32;2.50;;;;;;;17.17;60.69;99772.53;4923056;28;102613;-59
2022/07/08 02:08:38;;;;;;;3.20;1.90;;;;;;;17.20;60.67;99774.09;4922018;28;102716;-59
2022/07/08 02:13:52;;;;;;;5.03;2.22;;;;;;;17.68;59.24;99774.53;4903067;28;103917;-59
2022/07/08 02:16:20;;;;;;;3.38;1.70;;;;;;;17.74;59.75;99780.19;4922156;28;102675;-59
2022/07/08 02:18:48;;;;;;;4.97;1.90;;;;;;;17.80;59.15;99779.66;4921934;28;102712;-57
2022/07/08 02:21:16;;;;;;;4.60;1.60;;;;;;;17.83;59.16;99773.19;4922960;28;103228;-57
2022/07/08 02:23:44;;;;;;;4.43;1.90;;;;;;;17.62;59.79;99770.53;4921018;28;103312;-59
2022/07/08 02:26:12;;;;;;;4.70;2.20;;;;;;;17.02;61.79;99767.59;4921477;28;102689;-58
2022/07/08 02:28:42;;;;;;;5.88;2.53;;;;;;;17.04;61.67;99763.00;4922873;28;102694;-59
2022/07/08 02:31:11;;;;;;;4.70;2.17;;;;;;;17.16;61.59;99772.63;4921514;28;104045;-59
2022/07/08 02:33:39;;;;;;;4.10;1.60;;;;;;;17.31;60.88;99776.72;4903554;28;104162;-58
2022/07/08 02:36:08;;;;;;;5.47;2.10;;;;;;;17.12;61.53;99777.38;4921529;28;102888;-58
2022/07/08 02:38:36;;;;;;;3.38;1.80;;;;;;;17.34;60.93;99785.34;4921811;28;103681;-58
2022/07/08 02:41:04;;;;;;;5.10;2.10;;;;;;;16.58;63.13;99777.38;4920952;28;103258;-58
2022/07/08 02:43:32;;;;;;;4.90;2.08;;;;;;;16.98;62.24;99784.84;4917305;28;103296;-59
2022/07/08 02:46:00;;;;;;;4.35;1.75;;;;;;;17.14;62.03;99787.94;4918684;28;103099;-59
2022/07/08 02:48:29;;;;;;;4.95;1.95;;;;;;;17.24;61.39;99796.88;4919534;28;102694;-57
2022/07/08 02:50:58;;;;;;;5.25;2.25;;;;;;;17.36;61.05;99798.56;4920690;28;104001;-56
2022/07/08 02:53:26;;;;;;;3.72;2.00;;;;;;;17.36;60.79;99799.41;4915694;28;103332;-57
2022/07/08 02:55:54;;;;;;;5.13;2.00;;;;;;;17.29;60.94;99805.38;4915238;28;102990;-57
2022/07/08 02:58:24;;;;;;;5.17;2.13;;;;;;;17.12;61.72;99798.72;4914472;28;103081;-57
2022/07/08 03:00:52;;;;;;;4.57;1.80;;;;;;;17.06;62.19;99804.59;4914297;28;103253;-58
2022/07/08 03:03:20;;;;;;;5.03;2.40;;;;;;;16.64;63.42;99814.25;4917288;28;103262;-59
2022/07/08 03:05:49;;;;;;;3.35;1.70;;;;;;;17.00;62.47;99801.56;4919355;28;102697;-58
2022/07/08 03:08:20;;;;;;;3.85;1.83;;;;;;;16.90;62.37;99797.97;4900065;28;104186;-58
2022/07/08 03:10:49;;;;;;;4.47;2.10;;;;;;;16.77;62.73;99806.97;4915002;28;104257;-58
2022/07/08 03:13:19;;;;;;;4.70;1.80;;;;;;;17.11;61.86;99813.06;4918889;28;103180;-58
2022/07/08 03:15:47;;;;;;;3.50;1.40;;;;;;;17.08;61.87;99816.00;4924372;28;103095;-58
2022/07/08 03:18:15;;;;;;;4.90;1.97;;;;;;;17.16;61.62;99818.88;4922734;28;102820;-58
2022/07/08 03:20:43;;;;;;;3.60;1.80;;;;;;;17.04;61.77;99819.88;4905291;28;103488;-58
2022/07/08 03:23:13;;;;;;;4.10;1.95;;;;;;;17.12;61.70;99819.28;4923860;28;103206;-58
2022/07/08 03:25:41;;;;;;;3.90;2.10;;;;;;;17.07;61.58;99827.63;4923451;28;102648;-59
2022/07/08 03:28:09;;;;;;;3.77;1.73;;;;;;;17.25;61.03;99838.66;4924940;28;102908;-58
2022/07/08 03:30:37;;;;;;;5.20;2.08;;;;;;;16.95;62.17;99828.66;4922350;28;103032;-58
2022/07/08 03:33:05;;;;;;;3.58;1.90;;;;;;;16.97;62.09;99837.38;4906287;28;103465;-59
2022/07/08 03:35:33;;;;;;;4.30;1.90;;;;;;;17.16;61.46;99836.72;4905044;28;102696;-58
2022/07/08 03:38:01;;;;;;;4.60;1.88;;;;;;;17.09;61.62;99838.22;4923541;28;102832;-58
2022/07/08 03:43:22;;;;;;;3.58;1.50;;;;;;;17.19;61.58;99847.16;4907224;28;103212;-58
2022/07/08 03:45:50;;;;;;;3.90;1.77;;;;;;;17.20;61.33;99848.88;4924561;28;102787;-58
2022/07/08 03:48:20;;;;;;;3.60;1.63;;;;;;;17.16;61.70;99853.59;4923615;28;104774;-58
2022/07/08 03:50:48;;;;;;;3.58;1.50;;;;;;;17.27;61.19;99855.38;4906264;28;103768;-59
2022/07/08 03:53:16;;;;;;;3.92;1.77;;;;;;;17.26;61.44;99864.41;4923846;28;103282;-59
2022/07/08 03:55:46;;;;;;;4.55;1.60;;;;;;;17.32;61.20;99866.53;4923552;28;102738;-58
2022/07/08 03:58:14;;;;;;;4.37;1.70;;;;;;;17.15;62.07;99872.44;4905998;28;102725;-59
2022/07/08 04:00:43;;;;;;;2.40;1.48;;;;;;;17.31;61.30;99867.53;4906997;28;103244;-58
2022/07/08 04:03:11;;;;;;;3.20;1.70;;;;;;;17.33;61.49;99865.56;4905363;28;103258;-59
2022/07/08 04:05:38;;;;;;;4.40;2.15;;;;;;;16.93;62.78;99872.44;4922302;28;102641;-58
2022/07/08 04:08:07;;;;;;;4.35;1.67;;;;;;;16.96;62.51;99877.53;4922499;28;103846;-58
2022/07/08 04:10:34;;;;;;;3.80;1.80;;;;;;;17.05;62.88;99876.78;4925136;28;103265;-58
2022/07/08 04:13:04;;;;;;;3.90;1.88;;;;;;;17.15;61.92;99877.78;4924631;28;103010;-59
2022/07/08 04:15:32;;;;;;;5.57;2.05;;;;;;;16.93;62.60;99875.09;4923208;28;103286;-58
2022/07/08 04:18:00;;;;;;;6.10;2.47;;;;;;;16.78;66.37;99875.38;4906133;28;103513;-57
2022/07/08 04:20:28;;;;;;;5.93;2.40;;;;;;;16.90;66.23;99872.69;4905832;28;104211;-58
2022/07/08 04:22:56;;;;;;;8.13;2.38;;;;;;;16.25;66.20;99884.03;4906977;28;103043;-58
2022/07/08 04:25:24;;;;;;;5.13;1.88;;;;;;;16.37;66.07;99875.06;4921775;28;102638;-57
2022/07/08 04:27:52;;;;;;;2.72;1.60;;;;;;;16.63;65.50;99879.25;4922565;28;102796;-57
2022/07/08 04:30:22;;;;;;;4.50;2.20;;;;;;;16.54;66.25;99874.63;4922569;28;103302;-57
2022/07/08 04:32:49;;;;;;;2.95;1.85;;;;;;;16.77;66.25;99867.47;4923143;28;103206;-57
2022/07/08 04:35:17;;;;;;;4.88;1.92;;;;;;;16.71;66.03;99882.16;4922179;28;102795;-57
2022/07/08 04:37:46;;;;;;;4.60;2.30;;;;;;;16.71;65.47;99882.16;4921324;28;103726;-58
2022/07/08 04:40:14;;;;;;;5.53;2.33;;;;;;;16.68;66.21;99885.06;4925812;28;103281;-57
2022/07/08 04:42:42;;;;;;;5.82;2.22;;;;;;;16.68;65.91;99878.88;4915062;28;103541;-57
2022/07/08 04:45:12;;;;;;;3.83;1.80;;;;;;;16.82;65.20;99873.28;4914987;28;102865;-56
2022/07/08 04:47:42;;;;;;;3.23;1.90;;;;;;;16.95;64.35;99867.84;4918858;28;102950;-56
2022/07/08 04:50:10;;;;;;;5.45;2.58;;;;;;;16.80;64.40;99873.44;4916780;28;103297;-56
2022/07/08 04:52:38;;;;;;;6.10;2.27;;;;;;;16.64;65.76;99878.28;4918661;28;103369;-56
2022/07/08 04:55:07;;;;;;;6.03;2.07;;;;;;;16.76;65.18;99879.09;4918460;28;103085;-56
2022/07/08 04:57:35;;;;;;;3.93;2.00;;;;;;;16.74;65.54;99879.25;4923359;28;103966;-56
2022/07/08 05:00:04;;;;;;;6.10;2.13;;;;;;;16.52;66.05;99887.22;4920730;28;103346;-56
2022/07/08 05:02:32;;;;;;;6.13;2.47;;;;;;;16.68;65.22;99884.22;4920553;28;103387;-56
2022/07/08 05:05:04;;;;;;;3.73;2.13;;;;;;;16.80;64.75;99878.78;4905309;28;103512;-56
2022/07/08 05:07:32;;;;;;;5.28;2.40;;;;;;;15.98;65.97;99886.13;4921135;28;104044;-56
2022/07/08 05:10:00;;;;;;;6.57;2.60;;;;;;;16.47;64.73;99881.38;4924317;28;103590;-56
2022/07/08 05:12:28;;;;;;;5.70;2.05;;;;;;;16.40;65.16;99882.81;4903903;28;103237;-56
2022/07/08 05:14:56;;;;;;;6.40;2.33;;;;;;;16.32;65.46;99877.22;4896908;28;103036;-56
2022/07/08 05:17:32;;;;;;;6.28;3.00;;;;;;;16.08;65.80;99884.47;4934052;28;102762;-56
2022/07/08 05:20:00;;;;;;;6.15;2.35;;;;;;;16.46;65.01;99879.69;4919448;28;103254;-56
2022/07/08 05:22:29;;;;;;;4.38;2.00;;;;;;;16.58;64.59;99884.09;4910867;28;103306;-56
2022/07/08 05:24:57;;;;;;;5.40;2.17;;;;;;;16.49;63.74;99875.91;4918371;28;102702;-56
2022/07/08 05:27:25;;;;;;;6.30;2.30;;;;;;;16.16;65.52;99885.59;4920339;28;103962;-57
2022/07/08 05:29:53;;;;;;;3.73;1.90;;;;;;;16.48;65.14;99884.88;4919276;28;103478;-56
2022/07/08 05:32:21;;;;;;;7.13;2.15;;;;;;;16.63;64.07;99887.25;4903496;28;103213;-56
2022/07/08 05:34:49;;;;;;;5.05;2.10;;;;;;;16.84;64.25;99883.88;4902626;28;102983;-56
2022/07/08 05:37:17;;;;;;;7.15;2.58;;;;;;;16.23;65.27;99892.13;4916972;28;104257;-58
2022/07/08 05:39:46;;;;;;;7.20;2.17;;;;;;;16.32;64.60;99892.38;4897481;28;104188;-57
2022/07/08 05:42:14;;;;;;;4.38;1.98;;;;;;;15.51;65.74;99903.84;4924907;28;103256;-58
2022/07/08 05:44:42;;;;;;;6.40;2.88;;;;;;;15.48;67.48;99906.75;4920077;28;102589;-58
2022/07/08 05:47:10;;;;;;;6.88;2.47;;;;;;;15.69;66.53;99911.44;4904273;28;103181;-58
2022/07/08 05:49:38;;;;;;;6.43;2.20;;;;;;;16.02;66.80;99912.44;4921770;28;103990;-58
2022/07/08 05:52:08;;;;;;;4.53;2.22;;;;;;;16.38;65.50;99913.25;4922511;28;103238;-58
2022/07/08 05:54:36;;;;;;;4.27;2.10;;;;;;;15.89;65.15;99918.78;4921220;28;102649;-58
2022/07/08 05:57:06;;;;;;;6.27;2.33;;;;;;;15.86;65.85;99921.69;4923764;28;103514;-57
2022/07/08 05:59:34;;;;;;;6.03;1.90;;;;;;;16.17;65.42;99921.06;4896704;28;103306;-57
2022/07/08 06:02:02;;;;;;;4.10;1.80;;;;;;;16.67;63.64;99923.38;4921637;28;103217;-58
2022/07/08 06:04:30;;;;;;;3.40;1.50;;;;;;;16.86;63.36;99919.28;4920337;28;102642;-57
2022/07/08 06:06:58;;;;;;;4.50;2.00;;;;;;;17.05;62.42;99914.16;4922515;28;102742;-58
2022/07/08 06:09:26;;;;;;;5.82;2.00;;;;;;;17.08;63.06;99919.28;4922197;28;103331;-58
2022/07/08 06:11:54;;;;;;;6.00;2.17;;;;;;;16.43;63.51;99925.25;4904901;28;103026;-58
2022/07/08 06:14:23;;;;;;;7.63;2.10;;;;;;;17.03;61.99;99916.13;4922210;28;102997;-58
2022/07/08 06:16:51;;;;;;;4.15;1.73;;;;;;;16.25;61.95;99929.34;4922522;28;102793;-57
2022/07/08 06:19:19;;;;;;;4.10;1.63;;;;;;;16.77;59.36;99921.72;4904089;28;103243;-58
2022/07/08 06:21:47;;;;;;;5.22;1.67;;;;;;;16.90;59.86;99920.75;4919977;28;103204;-57
2022/07/08 06:24:15;;;;;;;4.80;1.70;;;;;;;16.71;60.08;99924.00;4919455;28;102751;-56
2022/07/08 06:26:44;;;;;;;4.43;1.80;;;;;;;16.50;61.15;99926.50;4920587;28;102689;-57
2022/07/08 06:29:12;;;;;;;5.32;1.80;;;;;;;16.67;59.83;99926.03;4922003;28;103436;-56
2022/07/08 06:31:41;;;;;;;5.00;1.70;;;;;;;16.49;58.97;99932.78;4921180;28;103243;-57
2022/07/08 06:34:09;;;;;;;3.20;1.40;;;;;;;16.59;58.75;99938.31;4925721;28;102783;-57
2022/07/08 06:36:37;;;;;;;5.00;1.53;;;;;;;16.94;58.49;99928.38;4905436;28;103518;-57
2022/07/08 06:39:05;;;;;;;6.40;1.60;;;;;;;16.96;58.44;99946.94;4923293;28;104168;-57
2022/07/08 06:41:33;;;;;;;4.30;1.60;;;;;;;17.09;57.93;99935.19;4925263;28;103219;-57
2022/07/08 06:44:01;;;;;;;6.53;1.75;;;;;;;16.91;59.48;99944.63;4926402;28;102671;-57
2022/07/08 06:46:29;;;;;;;4.43;1.50;;;;;;;16.98;59.97;99940.50;4925523;28;102921;-57
2022/07/08 06:48:58;;;;;;;4.15;1.73;;;;;;;17.10;58.70;99933.34;4925044;28;104012;-57
2022/07/08 06:51:26;;;;;;;4.27;1.47;;;;;;;17.80;56.39;99928.50;4925852;28;103252;-57
2022/07/08 06:56:39;;;;;;;3.05;1.30;;;;;;;17.91;55.81;99942.66;4898244;28;103164;-57
2022/07/08 06:59:08;;;;;;;4.95;1.30;;;;;;;17.18;55.87;99941.59;4920511;28;103282;-57
2022/07/08 07:01:35;;;;;;;4.55;1.50;;;;;;;17.08;55.56;99951.31;4920377;28;103207;-57
2022/07/08 07:04:05;;;;;;;4.43;1.47;;;;;;;16.88;57.69;99950.22;4923638;28;103088;-57
2022/07/08 07:06:33;;;;;;;5.80;2.08;;;;;;;17.73;55.27;99949.56;4922027;28;104392;-57
2022/07/08 07:09:01;;;;;;;3.38;1.55;;;;;;;18.15;54.46;99945.13;4921156;28;103381;-57
2022/07/08 07:11:29;;;;;;;5.90;1.67;;;;;;;17.37;56.15;99952.50;4918413;28;103236;-57
2022/07/08 07:13:57;;;;;;;5.72;1.75;;;;;;;17.38;55.53;99946.19;4923059;28;102587;-57
2022/07/08 07:16:25;;;;;;;4.07;1.50;;;;;;;17.98;53.52;99952.84;4923010;28;102943;-57
2022/07/08 07:18:53;;;;;;;3.07;1.27;;;;;;;18.80;52.79;99958.28;4923697;28;104446;-56
2022/07/08 07:21:22;;;;;;;3.35;1.50;;;;;;;18.69;51.87;99950.34;4906076;28;103343;-57
2022/07/08 07:23:53;;;;;;;3.22;1.48;;;;;;;18.51;52.89;99951.91;4922864;28;102685;-56
2022/07/08 07:26:21;;;;;;;4.53;1.50;;;;;;;18.31;50.77;99958.91;4924726;28;102654;-57
2022/07/08 07:28:49;;;;;;;3.00;1.27;;;;;;;18.62;50.43;99964.34;4923564;28;103323;-57
2022/07/08 07:31:17;;;;;;;4.60;1.50;;;;;;;18.71;52.33;99956.41;4921700;28;103448;-57
2022/07/08 07:33:45;;;;;;;6.30;1.67;;;;;;;18.40;51.97;99962.63;4924444;28;103000;-57
2022/07/08 07:36:13;;;;;;;4.28;1.50;;;;;;;18.01;52.22;99966.84;4924710;28;103111;-57
2022/07/08 07:38:42;;;;;;;3.78;1.40;;;;;;;18.14;50.61;99958.63;4915896;28;103311;-57
2022/07/08 07:41:11;;;;;;;4.57;1.33;;;;;;;19.01;50.81;99963.59;4923332;28;103238;-57
2022/07/08 07:43:39;;;;;;;5.10;1.35;;;;;;;20.09;48.30;99962.78;4919467;28;102741;-57
2022/07/08 07:46:07;;;;;;;3.85;1.30;;;;;;;19.80;49.04;99961.88;4906375;28;102842;-57
2022/07/08 07:48:35;;;;;;;4.43;1.40;;;;;;;19.38;48.67;99963.88;4922002;28;103312;-57
2022/07/08 07:51:03;;;;;;;3.05;1.33;;;;;;;18.93;50.55;99972.28;4921915;28;103471;-58
2022/07/08 07:53:31;;;;;;;2.53;1.10;;;;;;;19.41;49.05;99961.81;4924666;28;102833;-58
2022/07/08 07:56:07;;;;;;;4.05;1.38;;;;;;;19.39;48.62;99965.63;4923805;28;104197;-57
2022/07/08 07:58:35;;;;;;;4.70;1.30;;;;;;;18.97;49.80;99970.22;4922334;28;103992;-58
2022/07/08 08:01:03;;;;;;;2.67;1.10;;;;;;;19.54;49.76;99969.59;4905286;28;103065;-57
2022/07/08 08:03:31;;;;;;;2.92;1.40;;;;;;;20.09;48.15;99963.63;4924536;28;102728;-57
2022/07/08 08:05:59;;;;;;;3.08;1.10;;;;;;;21.06;45.39;99957.13;4906247;28;102950;-58
2022/07/08 08:08:31;;;;;;;3.85;1.25;;;;;;;21.09;46.41;99962.22;4920707;28;103305;-58
2022/07/08 08:11:00;;;;;;;4.03;1.10;;;;;;;21.44;44.47;99960.69;4922193;28;103242;-58
2022/07/08 08:13:30;;;;;;;5.45;1.40;;;;;;;19.80;47.56;99970.78;4923100;28;102668;-58
2022/07/08 08:15:58;;;;;;;3.87;1.43;;;;;;;19.43;47.45;99964.34;4920262;28;104263;-58
2022/07/08 08:18:26;;;;;;;4.45;1.45;;;;;;;21.20;45.50;99961.19;4907305;28;102983;-57
2022/07/08 08:20:55;;;;;;;5.33;1.53;;;;;;;19.79;46.62;99968.25;4921136;28;103791;-57
2022/07/08 08:23:22;;;;;;;2.70;0.90;;;;;;;21.13;45.95;99971.72;4922472;28;102828;-58
2022/07/08 08:25:51;;;;;;;3.50;1.40;;;;;;;20.47;46.80;99975.34;4904799;28;102890;-58
2022/07/08 08:28:19;;;;;;;2.47;1.17;;;;;;;20.86;45.57;99971.59;4919894;28;104150;-58
2022/07/08 08:30:48;;;;;;;3.45;1.40;;;;;;;20.18;46.41;99981.53;4923672;28;103331;-57
2022/07/08 08:33:16;;;;;;;3.65;1.35;;;;;;;20.03;46.92;99971.38;4912118;28;102578;-58
2022/07/08 08:35:44;;;;;;;4.18;1.60;;;;;;;20.02;47.96;99967.84;4900463;28;104100;-58
2022/07/08 08:38:12;;;;;;;3.13;1.25;;;;;;;21.08;44.56;99960.53;4917240;28;103947;-57
2022/07/08 08:40:42;;;;;;;3.45;1.50;;;;;;;19.72;47.27;99962.59;4921312;28;103195;-58
2022/07/08 08:43:10;;;;;;;3.13;1.20;;;;;;;20.11;48.08;99967.00;4920591;28;102858;-58
2022/07/08 08:45:44;;;;;;;2.55;1.20;;;;;;;20.65;46.74;99968.28;4923683;28;102985;-58
2022/07/08 08:48:14;;;;;;;2.97;1.00;;;;;;;21.15;47.97;99967.03;4923630;28;103293;-60
2022/07/08 08:50:55;;;;;;;3.92;1.27;;;;;;;20.63;46.20;99964.91;4922434;28;103237;-60
2022/07/08 08:53:27;;;;;;;3.13;1.30;;;;;;;20.90;46.21;99959.59;4921701;28;102685;-58
2022/07/08 08:55:56;;;;;;;3.28;1.10;;;;;;;21.98;43.63;99960.63;4915785;28;104335;-58
2022/07/08 08:58:25;;;;;;;2.00;1.10;;;;;;;22.01;43.43;99949.56;4918181;28;103298;-60
2022/07/08 09:00:53;;;;;;;3.50;1.33;;;;;;;21.88;44.50;99949.94;4902440;28;103248;-60
2022/07/08 09:03:23;;;;;;;3.90;1.30;;;;;;;22.75;43.68;99950.03;4905950;28;103381;-61
2022/07/08 09:05:52;;;;;;;2.80;1.20;;;;;;;23.74;43.87;99958.47;4921083;28;102935;-60
2022/07/08 09:08:20;;;;;;;4.07;1.20;;;;;;;23.02;41.89;99949.00;4918187;28;103468;-60
2022/07/08 09:10:48;;;;;;;4.80;1.50;;;;;;;21.30;44.81;99952.13;4919416;28;103216;-60
2022/07/08 09:13:16;;;;;;;2.83;1.27;;;;;;;22.65;42.17;99943.06;4903666;28;102831;-60
2022/07/08 09:15:48;;;;;;;2.40;1.35;;;;;;;24.31;41.78;99938.66;4904540;28;102840;-62
2022/07/08 09:18:18;;;;;;;4.05;1.35;;;;;;;23.81;41.16;99936.03;4919338;28;104111;-62
2022/07/08 09:20:49;;;;;;;2.45;1.20;;;;;;;22.29;42.79;99943.09;4921108;28;103281;-61
2022/07/08 09:23:20;;;;;;;4.10;1.20;;;;;;;22.62;41.78;99944.22;4902268;28;102791;-61
2022/07/08 09:25:49;;;;;;;3.45;1.20;;;;;;;21.85;45.84;99950.22;4920983;28;102824;-61
2022/07/08 09:28:33;;;;;;;3.47;1.33;;;;;;;20.66;46.40;99954.69;4924922;28;103251;-62
2022/07/08 09:31:03;;;;;;;5.43;1.50;;;;;;;21.78;44.44;99946.44;4922547;28;103239;-60
2022/07/08 09:33:32;;;;;;;5.03;1.48;;;;;;;21.86;44.62;99951.06;4917929;28;102669;-60
2022/07/08 09:36:04;;;;;;;3.78;1.20;;;;;;;23.88;43.29;99949.72;4921654;28;102667;-62
2022/07/08 09:38:34;;;;;;;2.37;1.00;;;;;;;25.11;41.17;99951.25;4922908;28;103091;-62
2022/07/08 09:41:05;;;;;;;3.15;1.40;;;;;;;24.05;40.26;99946.03;4921192;28;103152;-62
2022/07/08 09:43:34;;;;;;;3.88;1.65;;;;;;;23.30;42.10;99947.81;4902900;28;102747;-61
2022/07/08 09:46:04;;;;;;;3.38;1.35;;;;;;;23.11;42.22;99956.16;4919538;28;103466;-62
2022/07/08 09:48:32;;;;;;;4.27;1.30;;;;;;;22.20;43.33;99957.50;4901886;28;103144;-62
2022/07/08 09:51:07;;;;;;;5.90;1.30;;;;;;;22.56;43.75;99952.91;4922157;28;103430;-62
2022/07/08 09:53:36;;;;;;;3.22;1.25;;;;;;;23.71;43.94;99951.53;4921768;28;102581;-62
2022/07/08 09:56:06;;;;;;;3.47;1.17;;;;;;;24.13;40.19;99951.47;4923371;28;102802;-62
2022/07/08 09:58:35;;;;;;;5.00;1.40;;;;;;;23.96;40.84;99953.28;4920708;28;103895;-60
2022/07/08 10:01:04;;;;;;;4.15;1.27;;;;;;;22.33;41.90;99960.63;4920240;28;103403;-61
2022/07/08 10:03:32;;;;;;;4.75;1.58;;;;;;;23.41;41.93;99939.47;4920911;28;102700;-60
2022/07/08 10:06:03;;;;;;;5.32;1.10;;;;;;;24.38;42.58;99941.53;4922184;28;102748;-60
2022/07/08 10:08:32;;;;;;;2.42;1.17;;;;;;;24.94;39.53;99940.66;4902740;28;103355;-59
2022/07/08 10:11:06;;;;;;;3.60;1.43;;;;;;;23.08;41.36;99948.38;4885923;28;103294;-60
2022/07/08 10:13:35;;;;;;;4.38;1.40;;;;;;;23.23;42.27;99949.47;4917160;28;102637;-60
2022/07/08 10:16:05;;;;;;;3.85;1.30;;;;;;;23.16;42.25;99943.03;4920542;28;102741;-60
2022/07/08 10:18:36;;;;;;;4.03;1.30;;;;;;;23.14;41.92;99949.59;4903444;28;104221;-62
2022/07/08 10:21:10;;;;;;;3.50;1.60;;;;;;;23.39;40.39;99949.56;4921353;28;103188;-61
2022/07/08 10:23:43;;;;;;;4.22;1.42;;;;;;;23.57;40.69;99944.94;4905200;28;102681;-61
2022/07/08 10:26:12;;;;;;;3.87;1.30;;;;;;;24.50;41.25;99943.75;4921073;28;104187;-60
2022/07/08 10:28:41;;;;;;;3.13;1.20;;;;;;;25.77;38.27;99931.88;4920742;28;103294;-60
2022/07/08 10:31:20;;;;;;;4.07;1.42;;;;;;;24.68;37.92;99938.97;4920173;28;103211;-60
2022/07/08 10:33:49;;;;;;;3.50;1.10;;;;;;;24.33;39.60;99947.44;4923701;28;102750;-60
2022/07/08 10:36:21;;;;;;;2.50;1.10;;;;;;;24.08;40.22;99946.53;4919012;28;103078;-60
2022/07/08 10:38:50;;;;;;;3.30;1.40;;;;;;;23.92;40.01;99946.50;4919916;28;104030;-60
2022/07/08 10:41:21;;;;;;;4.60;1.10;;;;;;;24.49;38.69;99938.47;4921332;28;103268;-60
2022/07/08 10:43:53;;;;;;;3.20;0.90;;;;;;;25.53;38.36;99937.41;4920448;28;102865;-60
2022/07/08 10:46:21;;;;;;;2.58;1.17;;;;;;;22.59;43.77;99946.34;4919989;28;102897;-61
2022/07/08 10:48:54;;;;;;;4.20;1.35;;;;;;;23.19;42.22;99942.69;4920723;28;103396;-59
2022/07/08 10:51:50;;;;;;;2.85;1.23;;;;;;;23.71;40.02;99948.00;4901936;28;103626;-60
2022/07/08 10:54:38;;;;;;;4.07;1.10;;;;;;;24.87;40.08;99936.97;4920760;28;102771;-60
2022/07/08 10:57:16;;;;;;;3.55;1.05;;;;;;;23.98;41.01;99939.59;4921846;28;102721;-60
2022/07/08 11:00:02;;;;;;;4.07;1.20;;;;;;;23.15;41.25;99935.97;4903256;28;103321;-60
2022/07/08 11:02:33;;;;;;;2.20;0.93;;;;;;;22.95;40.95;99939.91;4920856;28;103193;-60
2022/07/08 11:05:01;;;;;;;3.03;1.00;;;;;;;23.39;39.75;99928.00;4902660;28;102743;-61
2022/07/08 11:07:30;;;;;;;3.13;1.20;;;;;;;23.08;40.55;99935.75;4903566;28;104051;-60
2022/07/08 11:10:05;;;;;;;2.33;1.10;;;;;;;22.55;42.02;99929.66;4920791;28;103291;-62
2022/07/08 11:12:34;;;;;;;2.67;1.10;;;;;;;22.61;41.74;99937.13;4902868;28;103381;-62
2022/07/08 11:15:06;;;;;;;2.67;1.00;;;;;;;23.41;41.28;99934.06;4914277;28;103103;-62
2022/07/08 11:17:36;;;;;;;3.43;1.10;;;;;;;24.48;40.47;99931.38;4918199;28;104033;-61
2022/07/08 11:20:08;;;;;;;2.60;1.02;;;;;;;22.86;40.18;99928.22;4917722;28;103365;-61
2022/07/08 11:22:38;;;;;;;1.95;1.00;;;;;;;24.02;39.79;99925.63;4922240;28;102970;-61
2022/07/08 11:25:10;;;;;;;2.85;1.00;;;;;;;22.92;40.70;99934.81;4920604;28;102633;-60
2022/07/08 11:27:38;;;;;;;2.70;1.10;;;;;;;23.36;41.01;99933.69;4920618;28;102846;-62
2022/07/08 11:30:09;;;;;;;3.17;1.27;;;;;;;23.08;40.38;99924.13;4915361;28;104348;-61
2022/07/08 11:32:38;;;;;;;2.40;0.90;;;;;;;23.65;39.54;99928.75;4925222;28;103205;-62
2022/07/08 11:35:07;;;;;;;2.95;1.13;;;;;;;23.77;38.84;99931.16;4923292;28;102975;-61
2022/07/08 11:37:40;;;;;;;2.78;1.05;;;;;;;23.34;40.21;99933.00;4906413;28;103012;-62
2022/07/08 11:40:11;;;;;;;2.97;1.10;;;;;;;22.70;40.98;99935.34;4923663;28;103282;-62
2022/07/08 11:42:40;;;;;;;3.80;1.50;;;;;;;23.99;40.21;99930.50;4924355;28;103088;-61